Time;durP1;ratioP1;P1;durP2;ratioP2;P2;SDS_P1;SDS_P2;PMS_P1;PMS_P2;Temp;Humidity;BMP_temperature;BMP_pressure;BME280_temperature;BME280_humidity;BME280_pressure;Samples;Min_cycle;Max_cycle;Signal;HPM_P1;HPM_P2
2023/07/29 00:02:14;;;;;;;5.32;1.30;;;;;;;;;;5029336;28;20078;-72
2023/07/29 00:04:59;;;;;;;2.85;1.70;;;;;;;;;;5032264;28;20033;-74
2023/07/29 00:07:44;;;;;;;3.78;1.40;;;;;;;;;;5031332;28;20064;-72
2023/07/29 00:10:31;;;;;;;4.25;1.73;;;;;;;;;;5031325;28;20037;-71
2023/07/29 00:13:16;;;;;;;3.30;1.85;;;;;;;;;;5033354;28;20049;-71
2023/07/29 00:16:01;;;;;;;4.38;1.67;;;;;;;;;;5011541;28;20061;-75
2023/07/29 00:18:46;;;;;;;3.35;2.00;;;;;;;;;;5035714;28;20033;-71
2023/07/29 00:21:32;;;;;;;2.47;1.30;;;;;;;;;;5029814;28;20045;-71
2023/07/29 00:24:17;;;;;;;3.70;1.55;;;;;;;;;;5031246;28;20029;-69
2023/07/29 00:27:02;;;;;;;4.03;1.85;;;;;;;;;;5034930;28;20126;-68
2023/07/29 00:29:48;;;;;;;3.05;1.40;;;;;;;;;;5037480;28;20029;-69
2023/07/29 00:32:33;;;;;;;4.85;1.63;;;;;;;;;;5036389;28;20399;-69
2023/07/29 00:35:18;;;;;;;4.03;1.77;;;;;;;;;;5032383;28;20176;-68
2023/07/29 00:38:03;;;;;;;2.22;1.52;;;;;;;;;;5030941;28;20029;-61
2023/07/29 00:40:49;;;;;;;5.65;1.98;;;;;;;;;;5035649;28;20584;-63
2023/07/29 00:43:34;;;;;;;2.72;1.30;;;;;;;;;;5033384;28;20460;-62
2023/07/29 00:46:19;;;;;;;5.97;1.40;;;;;;;;;;5035900;28;20033;-63
2023/07/29 00:49:05;;;;;;;2.03;1.60;;;;;;;;;;5027484;28;20223;-62
2023/07/29 00:51:50;;;;;;;2.33;1.40;;;;;;;;;;5022441;28;20030;-68
2023/07/29 00:54:35;;;;;;;3.45;1.60;;;;;;;;;;5034375;28;20021;-68
2023/07/29 00:57:21;;;;;;;2.28;1.70;;;;;;;;;;5023335;28;20388;-69
2023/07/29 01:00:08;;;;;;;5.82;1.52;;;;;;;;;;5031380;28;20483;-69
2023/07/29 01:02:54;;;;;;;3.60;1.45;;;;;;;;;;5037632;28;20764;-69
2023/07/29 01:05:45;;;;;;;5.07;1.42;;;;;;;;;;5041902;28;20173;-68
2023/07/29 01:08:38;;;;;;;1.98;1.60;;;;;;;;;;5038387;28;20040;-67
2023/07/29 01:11:23;;;;;;;4.40;1.40;;;;;;;;;;5028730;28;20067;-66
2023/07/29 01:14:17;;;;;;;3.10;1.95;;;;;;;;;;5031187;28;20440;-73
2023/07/29 01:17:05;;;;;;;6.93;1.75;;;;;;;;;;5035170;28;20045;-74
2023/07/29 01:19:59;;;;;;;3.28;1.73;;;;;;;;;;5034970;28;20041;-74
2023/07/29 01:22:44;;;;;;;4.93;1.67;;;;;;;;;;5029987;28;20037;-75
2023/07/29 01:25:29;;;;;;;3.95;1.33;;;;;;;;;;5030762;28;20069;-74
2023/07/29 01:28:15;;;;;;;1.92;1.40;;;;;;;;;;5026104;28;20482;-66
2023/07/29 01:31:10;;;;;;;8.07;1.50;;;;;;;;;;5031632;28;20026;-68
2023/07/29 01:34:00;;;;;;;5.13;1.77;;;;;;;;;;5027675;28;20074;-69
2023/07/29 01:36:46;;;;;;;2.08;1.60;;;;;;;;;;5030926;28;20080;-68
2023/07/29 01:39:34;;;;;;;2.65;1.60;;;;;;;;;;5035440;28;20029;-68
2023/07/29 01:42:19;;;;;;;4.75;1.55;;;;;;;;;;5033214;28;20031;-67
2023/07/29 01:45:05;;;;;;;3.17;1.65;;;;;;;;;;5032959;28;20029;-68
2023/07/29 01:47:50;;;;;;;3.38;1.80;;;;;;;;;;5040800;28;20076;-68
2023/07/29 01:50:35;;;;;;;2.45;1.45;;;;;;;;;;5028332;28;20051;-68
2023/07/29 01:53:20;;;;;;;7.45;3.17;;;;;;;;;;5030401;28;20092;-68
2023/07/29 01:56:06;;;;;;;4.47;1.92;;;;;;;;;;5031340;28;20088;-68
2023/07/29 01:58:51;;;;;;;2.75;1.50;;;;;;;;;;5029817;28;20050;-68
2023/07/29 02:01:36;;;;;;;3.22;1.33;;;;;;;;;;5032422;28;20025;-69
2023/07/29 02:04:22;;;;;;;2.47;1.63;;;;;;;;;;5020195;28;20041;-69
2023/07/29 02:07:07;;;;;;;4.43;1.50;;;;;;;;;;5030166;28;20048;-68
2023/07/29 02:09:53;;;;;;;2.35;1.58;;;;;;;;;;5087565;22;20110;-67
2023/07/29 02:12:38;;;;;;;1.83;1.10;;;;;;;;;;5074868;28;20124;-67
2023/07/29 02:15:23;;;;;;;7.25;1.52;;;;;;;;;;5073416;28;20548;-69
2023/07/29 02:18:09;;;;;;;5.53;1.83;;;;;;;;;;5073087;28;20046;-67
2023/07/29 02:20:54;;;;;;;4.85;2.10;;;;;;;;;;5066663;28;20152;-68
2023/07/29 02:23:39;;;;;;;2.08;1.88;;;;;;;;;;5065585;28;20056;-66
2023/07/29 02:26:25;;;;;;;4.85;1.77;;;;;;;;;;5070133;28;20028;-70
2023/07/29 02:29:10;;;;;;;6.47;3.20;;;;;;;;;;5051133;28;20035;-65
2023/07/29 02:31:55;;;;;;;4.63;1.65;;;;;;;;;;5073775;28;20130;-68
2023/07/29 02:34:40;;;;;;;4.57;2.20;;;;;;;;;;5068735;28;20016;-69
2023/07/29 02:37:25;;;;;;;2.50;1.77;;;;;;;;;;5048804;28;20113;-68
2023/07/29 02:40:11;;;;;;;2.42;1.60;;;;;;;;;;5053586;28;20032;-65
2023/07/29 02:42:56;;;;;;;2.90;1.60;;;;;;;;;;5052661;28;20032;-67
2023/07/29 02:45:41;;;;;;;1.88;1.20;;;;;;;;;;5052427;28;20059;-66
2023/07/29 02:48:28;;;;;;;3.38;1.80;;;;;;;;;;5041251;28;20391;-69
2023/07/29 02:51:13;;;;;;;3.08;1.42;;;;;;;;;;5038652;28;20025;-67
2023/07/29 02:53:58;;;;;;;2.70;1.42;;;;;;;;;;5049083;28;20095;-67
2023/07/29 02:56:44;;;;;;;4.38;1.70;;;;;;;;;;5038979;28;20048;-69
2023/07/29 02:59:29;;;;;;;5.32;1.58;;;;;;;;;;5049644;28;20506;-68
2023/07/29 03:02:16;;;;;;;5.88;1.75;;;;;;;;;;5049934;28;20033;-73
2023/07/29 03:05:01;;;;;;;3.90;1.60;;;;;;;;;;5052395;28;20047;-69
2023/07/29 03:07:46;;;;;;;2.97;1.40;;;;;;;;;;5048372;28;20472;-67
2023/07/29 03:10:31;;;;;;;1.98;1.33;;;;;;;;;;5036764;28;20036;-69
2023/07/29 03:13:16;;;;;;;2.35;1.50;;;;;;;;;;5044447;28;20036;-68
2023/07/29 03:16:05;;;;;;;2.45;1.67;;;;;;;;;;5040010;28;20779;-67
2023/07/29 03:18:51;;;;;;;2.38;1.40;;;;;;;;;;5051003;28;20071;-74
2023/07/29 03:21:37;;;;;;;3.92;1.60;;;;;;;;;;5034867;28;20060;-66
2023/07/29 03:24:22;;;;;;;2.10;1.50;;;;;;;;;;5050872;28;20517;-65
2023/07/29 03:27:09;;;;;;;4.72;1.70;;;;;;;;;;5052816;28;20039;-66
2023/07/29 03:29:54;;;;;;;2.85;1.50;;;;;;;;;;5049511;28;20117;-67
2023/07/29 03:32:43;;;;;;;4.07;1.63;;;;;;;;;;5050332;28;20036;-66
2023/07/29 03:35:28;;;;;;;2.90;2.00;;;;;;;;;;5051868;28;20066;-67
2023/07/29 03:38:13;;;;;;;3.38;1.50;;;;;;;;;;5051352;28;20039;-73
2023/07/29 03:40:59;;;;;;;2.72;1.40;;;;;;;;;;5052302;28;20032;-64
2023/07/29 03:43:44;;;;;;;3.08;1.60;;;;;;;;;;5049338;28;20071;-67
2023/07/29 03:46:29;;;;;;;3.83;1.83;;;;;;;;;;5034438;28;20071;-66
2023/07/29 03:49:14;;;;;;;2.47;1.35;;;;;;;;;;5048845;28;20041;-66
2023/07/29 03:51:59;;;;;;;4.18;2.05;;;;;;;;;;5051656;28;20060;-64
2023/07/29 03:54:45;;;;;;;2.53;1.67;;;;;;;;;;5036836;28;20028;-66
2023/07/29 03:57:30;;;;;;;2.83;1.83;;;;;;;;;;5047466;28;20025;-71
2023/07/29 04:00:16;;;;;;;6.07;1.98;;;;;;;;;;5051787;28;20044;-68
2023/07/29 04:03:01;;;;;;;4.05;1.42;;;;;;;;;;5050550;28;20028;-68
2023/07/29 04:05:46;;;;;;;3.53;1.80;;;;;;;;;;5052046;28;20043;-68
2023/07/29 04:08:31;;;;;;;4.15;1.70;;;;;;;;;;5051159;28;20032;-68
2023/07/29 04:11:17;;;;;;;3.13;1.63;;;;;;;;;;5051062;28;20032;-67
2023/07/29 04:14:02;;;;;;;3.92;1.33;;;;;;;;;;5052062;28;20032;-67
2023/07/29 04:16:49;;;;;;;1.83;1.30;;;;;;;;;;5050646;28;20110;-66
2023/07/29 04:19:34;;;;;;;2.17;1.50;;;;;;;;;;5055187;28;20060;-73
2023/07/29 04:22:19;;;;;;;2.83;1.45;;;;;;;;;;5055872;28;20029;-74
2023/07/29 04:25:05;;;;;;;2.38;1.50;;;;;;;;;;5050699;28;20301;-72
2023/07/29 04:27:50;;;;;;;3.13;1.70;;;;;;;;;;5054721;28;20368;-72
2023/07/29 04:30:35;;;;;;;4.00;1.70;;;;;;;;;;5055188;28;20120;-72
2023/07/29 04:33:20;;;;;;;5.20;2.05;;;;;;;;;;5046784;28;20494;-66
2023/07/29 04:36:06;;;;;;;5.90;2.08;;;;;;;;;;5056475;28;20032;-76
2023/07/29 04:38:51;;;;;;;4.40;2.10;;;;;;;;;;5049602;28;20617;-73
2023/07/29 04:41:37;;;;;;;3.08;1.67;;;;;;;;;;5042970;28;20101;-76
2023/07/29 04:44:22;;;;;;;7.20;2.15;;;;;;;;;;5056386;28;20074;-75
2023/07/29 04:47:08;;;;;;;3.70;2.17;;;;;;;;;;5055153;28;20025;-75
2023/07/29 04:49:53;;;;;;;4.10;1.80;;;;;;;;;;5054124;28;20407;-74
2023/07/29 04:52:38;;;;;;;4.07;2.63;;;;;;;;;;5051613;28;20040;-71
2023/07/29 04:55:23;;;;;;;3.30;1.88;;;;;;;;;;5039510;28;20059;-67
2023/07/29 04:58:09;;;;;;;9.85;2.30;;;;;;;;;;5050956;28;20120;-67
2023/07/29 05:00:54;;;;;;;6.40;2.47;;;;;;;;;;5044604;28;20033;-67
2023/07/29 05:03:40;;;;;;;5.72;2.20;;;;;;;;;;5048217;28;20017;-66
2023/07/29 05:06:25;;;;;;;5.90;2.10;;;;;;;;;;5050155;28;20021;-63
2023/07/29 05:09:17;;;;;;;6.95;2.10;;;;;;;;;;5040299;28;20497;-73
2023/07/29 05:12:03;;;;;;;6.85;2.10;;;;;;;;;;5041721;28;20071;-72
2023/07/29 05:14:48;;;;;;;18.20;2.65;;;;;;;;;;5045157;28;20044;-74
2023/07/29 05:17:33;;;;;;;6.47;2.80;;;;;;;;;;5045924;28;20029;-74
2023/07/29 05:20:18;;;;;;;6.82;2.22;;;;;;;;;;5049107;28;20059;-76
2023/07/29 05:23:04;;;;;;;4.70;2.50;;;;;;;;;;5052279;28;20031;-74
2023/07/29 05:25:49;;;;;;;4.75;2.22;;;;;;;;;;5048892;28;20032;-75
2023/07/29 05:28:34;;;;;;;9.18;2.38;;;;;;;;;;5051468;28;20395;-73
2023/07/29 05:31:19;;;;;;;6.38;2.75;;;;;;;;;;5053888;28;20032;-74
2023/07/29 05:34:04;;;;;;;11.00;2.55;;;;;;;;;;5051293;28;20028;-73
2023/07/29 05:36:50;;;;;;;5.00;2.22;;;;;;;;;;5050446;28;20042;-75
2023/07/29 05:39:35;;;;;;;2.70;1.73;;;;;;;;;;5051355;28;20036;-72
2023/07/29 05:42:20;;;;;;;4.68;2.53;;;;;;;;;;5049102;28;20472;-74
2023/07/29 05:45:06;;;;;;;8.10;2.40;;;;;;;;;;5053539;28;20125;-72
2023/07/29 05:47:51;;;;;;;6.35;2.58;;;;;;;;;;5037477;28;20032;-74
2023/07/29 05:50:36;;;;;;;2.92;2.20;;;;;;;;;;5046262;28;20028;-73
2023/07/29 05:53:22;;;;;;;4.75;2.67;;;;;;;;;;5054374;28;20411;-72
2023/07/29 05:56:07;;;;;;;7.03;2.78;;;;;;;;;;5050915;28;20029;-73
2023/07/29 05:58:52;;;;;;;5.35;2.40;;;;;;;;;;5052687;28;20028;-71
2023/07/29 06:01:37;;;;;;;6.45;3.00;;;;;;;;;;5051773;28;20396;-74
2023/07/29 06:04:23;;;;;;;3.42;2.30;;;;;;;;;;5038856;28;20020;-74
2023/07/29 06:07:08;;;;;;;5.82;3.08;;;;;;;;;;5052708;28;20101;-73
2023/07/29 06:09:55;;;;;;;3.85;2.55;;;;;;;;;;5036501;28;20036;-65
2023/07/29 06:12:40;;;;;;;5.47;2.72;;;;;;;;;;5054871;28;20581;-67
2023/07/29 06:15:25;;;;;;;4.00;2.20;;;;;;;;;;5031133;28;20044;-67
2023/07/29 06:18:10;;;;;;;4.35;2.95;;;;;;;;;;5040426;28;20467;-66
2023/07/29 06:20:56;;;;;;;4.50;2.15;;;;;;;;;;5034059;28;20039;-66
2023/07/29 06:23:41;;;;;;;4.88;2.97;;;;;;;;;;5050207;28;20482;-73
2023/07/29 06:26:26;;;;;;;8.27;2.90;;;;;;;;;;5048643;28;20044;-75
2023/07/29 06:29:11;;;;;;;3.92;1.77;;;;;;;;;;5048274;28;20040;-78
2023/07/29 06:31:58;;;;;;;5.85;2.53;;;;;;;;;;5052294;28;20036;-76
2023/07/29 06:34:43;;;;;;;4.70;2.35;;;;;;;;;;5037730;28;20651;-76
2023/07/29 06:37:28;;;;;;;5.07;2.72;;;;;;;;;;5048304;28;20038;-77
2023/07/29 06:40:13;;;;;;;5.30;2.33;;;;;;;;;;5035547;28;20055;-75
2023/07/29 06:42:59;;;;;;;5.50;3.10;;;;;;;;;;5052399;28;20426;-74
2023/07/29 06:45:44;;;;;;;3.95;2.50;;;;;;;;;;5049651;28;20032;-68
2023/07/29 06:48:29;;;;;;;3.33;2.20;;;;;;;;;;5047190;28;20025;-68
2023/07/29 06:51:14;;;;;;;5.65;2.92;;;;;;;;;;5037592;28;20056;-67
2023/07/29 06:54:00;;;;;;;4.78;2.72;;;;;;;;;;5049307;28;20467;-71
2023/07/29 06:56:45;;;;;;;3.67;2.60;;;;;;;;;;5050038;28;20031;-67
2023/07/29 06:59:30;;;;;;;3.05;2.22;;;;;;;;;;5034185;28;20083;-65
2023/07/29 07:02:15;;;;;;;5.05;2.55;;;;;;;;;;5041301;28;20077;-66
2023/07/29 07:05:00;;;;;;;5.32;3.08;;;;;;;;;;5048933;28;20028;-69
2023/07/29 07:07:46;;;;;;;4.65;2.40;;;;;;;;;;5037345;28;20470;-70
2023/07/29 07:10:33;;;;;;;3.92;2.30;;;;;;;;;;5048786;28;20032;-72
2023/07/29 07:13:18;;;;;;;3.35;2.40;;;;;;;;;;5049487;28;20043;-70
2023/07/29 07:16:04;;;;;;;4.15;2.20;;;;;;;;;;5055725;28;20513;-68
2023/07/29 07:18:49;;;;;;;3.30;1.92;;;;;;;;;;5053293;28;20032;-65
2023/07/29 07:21:34;;;;;;;2.45;1.90;;;;;;;;;;5046519;28;20411;-67
2023/07/29 07:24:20;;;;;;;3.70;2.30;;;;;;;;;;5049876;28;20032;-68
2023/07/29 07:27:05;;;;;;;3.20;1.80;;;;;;;;;;5049928;28;20360;-67
2023/07/29 07:29:50;;;;;;;2.20;1.70;;;;;;;;;;5050752;28;20036;-68
2023/07/29 07:32:36;;;;;;;2.58;1.67;;;;;;;;;;5051374;28;20408;-69
2023/07/29 07:35:21;;;;;;;2.55;1.42;;;;;;;;;;5048965;28;20032;-67
2023/07/29 07:38:07;;;;;;;2.42;1.77;;;;;;;;;;5052461;28;20631;-64
2023/07/29 07:40:54;;;;;;;5.88;2.03;;;;;;;;;;5045415;28;20033;-70
2023/07/29 07:43:40;;;;;;;3.67;2.20;;;;;;;;;;5040085;28;20032;-70
2023/07/29 07:46:25;;;;;;;2.00;1.60;;;;;;;;;;5046193;28;20041;-72
2023/07/29 07:49:10;;;;;;;3.28;1.95;;;;;;;;;;5038989;28;20081;-70
2023/07/29 07:51:55;;;;;;;2.88;2.05;;;;;;;;;;5048564;28;20502;-70
2023/07/29 07:54:40;;;;;;;3.35;1.40;;;;;;;;;;5050166;28;20043;-74
2023/07/29 07:57:26;;;;;;;4.47;1.92;;;;;;;;;;5054065;28;20144;-72
2023/07/29 08:00:11;;;;;;;4.40;1.88;;;;;;;;;;5035507;28;20032;-67
2023/07/29 08:02:56;;;;;;;3.80;1.98;;;;;;;;;;5053250;28;20490;-64
2023/07/29 08:05:41;;;;;;;3.22;2.10;;;;;;;;;;5050142;28;20067;-65
2023/07/29 08:08:27;;;;;;;4.55;1.98;;;;;;;;;;5050533;28;20131;-68
2023/07/29 08:11:12;;;;;;;6.70;2.10;;;;;;;;;;5047612;28;20048;-63
2023/07/29 08:13:58;;;;;;;5.22;2.03;;;;;;;;;;5052640;28;20036;-67
2023/07/29 08:16:43;;;;;;;2.70;1.67;;;;;;;;;;5047191;28;20025;-70
2023/07/29 08:19:29;;;;;;;2.17;1.70;;;;;;;;;;5051053;28;20527;-68
2023/07/29 08:22:14;;;;;;;4.20;2.00;;;;;;;;;;5055358;28;20261;-66
2023/07/29 08:24:59;;;;;;;4.15;1.50;;;;;;;;;;5045737;28;20383;-69
2023/07/29 08:27:44;;;;;;;3.17;1.40;;;;;;;;;;5042146;28;20086;-70
2023/07/29 08:30:30;;;;;;;1.83;1.50;;;;;;;;;;5041014;28;20540;-67
2023/07/29 08:33:15;;;;;;;1.98;1.50;;;;;;;;;;5026546;28;20480;-70
2023/07/29 08:36:00;;;;;;;4.55;1.55;;;;;;;;;;5045443;28;20040;-71
2023/07/29 08:38:46;;;;;;;5.75;1.70;;;;;;;;;;5047673;28;20074;-79
2023/07/29 08:41:35;;;;;;;1.60;1.30;;;;;;;;;;5043427;28;20124;-78
2023/07/29 08:44:26;;;;;;;2.00;1.70;;;;;;;;;;5049246;28;20040;-76
2023/07/29 08:47:13;;;;;;;2.42;1.45;;;;;;;;;;5049971;28;20459;-77
2023/07/29 08:49:59;;;;;;;2.50;1.60;;;;;;;;;;5042008;28;20025;-73
2023/07/29 08:52:45;;;;;;;3.05;1.90;;;;;;;;;;5055682;28;20064;-72
2023/07/29 08:55:30;;;;;;;2.83;1.40;;;;;;;;;;5049233;28;20025;-68
2023/07/29 08:58:16;;;;;;;5.20;1.85;;;;;;;;;;5046979;28;20029;-68
2023/07/29 09:01:01;;;;;;;1.65;1.27;;;;;;;;;;5046294;28;20119;-67
2023/07/29 09:03:47;;;;;;;2.22;1.50;;;;;;;;;;5051281;28;20451;-69
2023/07/29 09:06:32;;;;;;;2.83;1.50;;;;;;;;;;5049461;28;20033;-69
2023/07/29 09:09:17;;;;;;;3.60;1.52;;;;;;;;;;5050199;28;20036;-70
2023/07/29 09:12:02;;;;;;;2.03;1.52;;;;;;;;;;5049262;28;20743;-66
2023/07/29 09:14:51;;;;;;;2.40;1.40;;;;;;;;;;5052368;28;20035;-68
2023/07/29 09:17:36;;;;;;;3.53;1.95;;;;;;;;;;5047256;28;20029;-68
2023/07/29 09:20:28;;;;;;;3.72;1.63;;;;;;;;;;5033151;28;20036;-73
2023/07/29 09:23:13;;;;;;;1.92;1.25;;;;;;;;;;5053507;28;20037;-72
2023/07/29 09:26:02;;;;;;;3.08;1.40;;;;;;;;;;5051271;28;20027;-70
2023/07/29 09:28:51;;;;;;;2.15;1.63;;;;;;;;;;5049646;28;20040;-67
2023/07/29 09:31:36;;;;;;;3.25;1.42;;;;;;;;;;5034988;28;20045;-65
2023/07/29 09:34:21;;;;;;;5.38;1.23;;;;;;;;;;5039802;28;20413;-68
2023/07/29 09:37:06;;;;;;;3.22;1.80;;;;;;;;;;5059177;28;20078;-67
2023/07/29 09:39:52;;;;;;;1.85;1.40;;;;;;;;;;5052349;28;20228;-66
2023/07/29 09:42:37;;;;;;;3.03;1.25;;;;;;;;;;5047495;28;20060;-66
2023/07/29 09:45:24;;;;;;;2.05;1.10;;;;;;;;;;5049807;28;20040;-71
2023/07/29 09:48:10;;;;;;;2.22;1.70;;;;;;;;;;5048857;28;20071;-72
2023/07/29 09:50:56;;;;;;;2.72;1.63;;;;;;;;;;5034442;28;20033;-75
2023/07/29 09:53:42;;;;;;;2.70;1.73;;;;;;;;;;5046778;28;20033;-74
2023/07/29 09:56:27;;;;;;;2.13;1.70;;;;;;;;;;5053306;28;20039;-74
2023/07/29 09:59:13;;;;;;;2.05;1.70;;;;;;;;;;5055032;28;20499;-76
2023/07/29 10:01:58;;;;;;;3.60;1.30;;;;;;;;;;5035711;28;20414;-74
2023/07/29 10:04:43;;;;;;;5.03;1.63;;;;;;;;;;5051603;28;20028;-76
2023/07/29 10:07:29;;;;;;;2.55;1.63;;;;;;;;;;5050986;28;20111;-69
2023/07/29 10:10:14;;;;;;;1.80;1.38;;;;;;;;;;5045671;28;20038;-67
2023/07/29 10:13:01;;;;;;;3.08;1.50;;;;;;;;;;5048175;28;20032;-67
2023/07/29 10:15:48;;;;;;;2.53;1.83;;;;;;;;;;5051694;28;20390;-68
2023/07/29 10:18:33;;;;;;;2.80;1.60;;;;;;;;;;5036206;28;20680;-65
2023/07/29 10:21:19;;;;;;;2.80;1.60;;;;;;;;;;5050139;28;20024;-69
2023/07/29 10:24:09;;;;;;;4.30;1.90;;;;;;;;;;5050583;28;20024;-78
2023/07/29 10:26:54;;;;;;;;;;;;;;;;;;5035999;28;20044;-64
2023/07/29 10:29:43;;;;;;;3.00;1.67;;;;;;;;;;5049605;28;19916;-69
2023/07/29 10:32:29;;;;;;;4.28;1.85;;;;;;;;;;5034778;28;20029;-69
2023/07/29 10:35:17;;;;;;;3.13;1.60;;;;;;;;;;5060602;28;20028;-73
2023/07/29 10:38:02;;;;;;;2.13;1.45;;;;;;;;;;5058978;28;20036;-71
2023/07/29 10:40:50;;;;;;;1.42;1.30;;;;;;;;;;5056874;28;20414;-66
2023/07/29 10:43:37;;;;;;;3.38;1.50;;;;;;;;;;5035260;28;20048;-66
2023/07/29 10:46:23;;;;;;;4.32;1.75;;;;;;;;;;5049043;28;20085;-67
2023/07/29 10:49:08;;;;;;;2.90;1.40;;;;;;;;;;5046402;28;20067;-66
2023/07/29 10:51:54;;;;;;;2.45;1.88;;;;;;;;;;5045817;28;20033;-66
2023/07/29 10:54:43;;;;;;;4.80;1.60;;;;;;;;;;5049790;28;20547;-66
2023/07/29 10:57:35;;;;;;;5.35;2.08;;;;;;;;;;5051347;28;20388;-67
2023/07/29 11:00:21;;;;;;;1.80;1.48;;;;;;;;;;5058135;28;20425;-74
2023/07/29 11:03:06;;;;;;;4.85;1.52;;;;;;;;;;5051258;28;20135;-74
2023/07/29 11:05:52;;;;;;;1.90;1.30;;;;;;;;;;5058648;28;20099;-74
2023/07/29 11:08:38;;;;;;;1.90;1.67;;;;;;;;;;5032432;28;20028;-74
2023/07/29 11:11:23;;;;;;;2.67;1.50;;;;;;;;;;5047415;28;20509;-76
2023/07/29 11:14:08;;;;;;;1.75;1.30;;;;;;;;;;5054411;28;20032;-75
2023/07/29 11:16:53;;;;;;;13.75;1.60;;;;;;;;;;5052148;28;20068;-65
2023/07/29 11:19:39;;;;;;;2.58;1.50;;;;;;;;;;5044419;28;20478;-75
2023/07/29 11:22:25;;;;;;;3.25;1.90;;;;;;;;;;5061488;28;20039;-75
2023/07/29 11:25:12;;;;;;;3.03;1.70;;;;;;;;;;5040738;28;20028;-72
2023/07/29 11:27:58;;;;;;;1.80;1.30;;;;;;;;;;5043139;28;20036;-73
2023/07/29 11:30:43;;;;;;;4.07;1.50;;;;;;;;;;5034863;28;20094;-76
2023/07/29 11:33:28;;;;;;;2.22;1.77;;;;;;;;;;5047518;28;20024;-74
2023/07/29 11:36:18;;;;;;;2.25;1.80;;;;;;;;;;5048760;28;20038;-73
2023/07/29 11:39:09;;;;;;;1.35;1.25;;;;;;;;;;5051346;28;20036;-66
2023/07/29 11:41:54;;;;;;;3.25;1.50;;;;;;;;;;5055844;28;20032;-66
2023/07/29 11:44:39;;;;;;;1.73;1.38;;;;;;;;;;5037262;28;20028;-65
2023/07/29 11:47:24;;;;;;;2.08;1.33;;;;;;;;;;5038877;28;20085;-66
2023/07/29 11:50:13;;;;;;;1.38;1.05;;;;;;;;;;5043592;28;20028;-66
2023/07/29 11:52:58;;;;;;;3.38;1.50;;;;;;;;;;5039426;28;20028;-66
2023/07/29 11:55:43;;;;;;;2.70;1.60;;;;;;;;;;5031886;28;20151;-69
2023/07/29 11:58:28;;;;;;;4.65;1.60;;;;;;;;;;5043221;28;20053;-71
2023/07/29 12:01:14;;;;;;;6.68;3.05;;;;;;;;;;5036704;28;20033;-70
2023/07/29 12:04:00;;;;;;;3.20;1.73;;;;;;;;;;5050538;28;20036;-71
2023/07/29 12:06:45;;;;;;;2.40;1.20;;;;;;;;;;5047448;28;20120;-72
2023/07/29 12:09:30;;;;;;;1.77;1.48;;;;;;;;;;5046820;28;20113;-71
2023/07/29 12:12:16;;;;;;;1.92;1.55;;;;;;;;;;5044539;28;20028;-74
2023/07/29 12:15:01;;;;;;;3.00;1.55;;;;;;;;;;5051097;28;20104;-68
2023/07/29 12:17:46;;;;;;;2.58;1.60;;;;;;;;;;5047436;28;20028;-68
2023/07/29 12:20:31;;;;;;;3.88;1.77;;;;;;;;;;5036999;28;20039;-70
2023/07/29 12:23:23;;;;;;;2.38;1.80;;;;;;;;;;5048902;28;20394;-67
2023/07/29 12:26:09;;;;;;;2.60;1.60;;;;;;;;;;5051640;28;20369;-68
2023/07/29 12:28:54;;;;;;;3.42;1.50;;;;;;;;;;5047988;28;20036;-68
2023/07/29 12:31:39;;;;;;;3.38;1.60;;;;;;;;;;5049517;28;20166;-78
2023/07/29 12:34:25;;;;;;;4.10;1.73;;;;;;;;;;5045431;28;20032;-69
2023/07/29 12:37:11;;;;;;;2.10;1.45;;;;;;;;;;5052673;28;20043;-67
2023/07/29 12:39:56;;;;;;;2.38;1.90;;;;;;;;;;5039657;28;20036;-70
2023/07/29 12:42:41;;;;;;;2.17;1.60;;;;;;;;;;5049711;28;20039;-71
2023/07/29 12:45:28;;;;;;;2.97;1.70;;;;;;;;;;5050371;28;20036;-73
2023/07/29 12:48:15;;;;;;;3.40;1.60;;;;;;;;;;5052563;28;20101;-72
2023/07/29 12:51:00;;;;;;;2.60;1.58;;;;;;;;;;5062764;28;20037;-72
2023/07/29 12:53:45;;;;;;;3.78;1.65;;;;;;;;;;5049739;28;20032;-74
2023/07/29 12:56:31;;;;;;;2.92;1.83;;;;;;;;;;5050679;28;20146;-77
2023/07/29 12:59:16;;;;;;;2.15;1.60;;;;;;;;;;5051780;28;20036;-73
2023/07/29 13:02:01;;;;;;;3.42;2.17;;;;;;;;;;5038501;28;20040;-72
2023/07/29 13:04:46;;;;;;;2.42;2.05;;;;;;;;;;5055576;28;20024;-77
2023/07/29 13:07:32;;;;;;;2.58;1.92;;;;;;;;;;5055590;28;20242;-74
2023/07/29 13:10:17;;;;;;;2.63;1.60;;;;;;;;;;5054628;28;20036;-71
2023/07/29 13:13:02;;;;;;;3.45;1.83;;;;;;;;;;5050395;28;20078;-70
2023/07/29 13:15:47;;;;;;;5.88;1.60;;;;;;;;;;5059303;28;20032;-70
2023/07/29 13:18:33;;;;;;;3.47;1.65;;;;;;;;;;5051141;28;20036;-73
2023/07/29 13:21:18;;;;;;;7.25;2.00;;;;;;;;;;5052634;28;20418;-70
2023/07/29 13:24:03;;;;;;;5.03;1.60;;;;;;;;;;5052321;28;20107;-69
2023/07/29 13:26:48;;;;;;;3.08;1.80;;;;;;;;;;5042282;28;20070;-68
2023/07/29 13:29:34;;;;;;;2.15;1.50;;;;;;;;;;5051757;28;20025;-64
2023/07/29 13:32:19;;;;;;;1.45;1.30;;;;;;;;;;5045594;28;20331;-66
2023/07/29 13:35:04;;;;;;;2.42;1.90;;;;;;;;;;5063486;28;20067;-65
2023/07/29 13:37:49;;;;;;;2.08;1.65;;;;;;;;;;5048409;28;20383;-68
2023/07/29 13:40:35;;;;;;;3.80;1.92;;;;;;;;;;5047718;28;20054;-65
2023/07/29 13:43:20;;;;;;;3.60;1.38;;;;;;;;;;5052379;28;20040;-65
2023/07/29 13:46:05;;;;;;;3.05;2.17;;;;;;;;;;5049810;28;20040;-70
2023/07/29 13:48:50;;;;;;;2.75;1.50;;;;;;;;;;5049380;28;20082;-71
2023/07/29 13:51:36;;;;;;;2.35;1.73;;;;;;;;;;5046489;28;20165;-71
2023/07/29 13:54:21;;;;;;;3.30;2.10;;;;;;;;;;5048040;28;20021;-73
2023/07/29 13:57:07;;;;;;;2.80;1.98;;;;;;;;;;5055943;28;20028;-73
2023/07/29 13:59:52;;;;;;;3.10;2.05;;;;;;;;;;5045138;28;20064;-74
2023/07/29 14:02:37;;;;;;;4.28;2.05;;;;;;;;;;5040512;28;20024;-76
2023/07/29 14:05:22;;;;;;;2.42;1.70;;;;;;;;;;5037562;28;20028;-74
2023/07/29 14:08:11;;;;;;;3.95;1.80;;;;;;;;;;5044937;28;20387;-69
2023/07/29 14:10:56;;;;;;;1.77;1.40;;;;;;;;;;5041919;28;20047;-70
2023/07/29 14:13:41;;;;;;;2.05;1.38;;;;;;;;;;5037772;28;20369;-73
2023/07/29 14:16:26;;;;;;;2.72;1.63;;;;;;;;;;5053509;28;20028;-71
2023/07/29 14:19:12;;;;;;;3.58;1.88;;;;;;;;;;5052903;28;20033;-71
2023/07/29 14:21:58;;;;;;;4.07;1.60;;;;;;;;;;5054313;28;20045;-69
2023/07/29 14:24:43;;;;;;;8.82;2.22;;;;;;;;;;5036213;28;20035;-78
2023/07/29 14:27:28;;;;;;;2.15;1.60;;;;;;;;;;5051486;28;20029;-76
2023/07/29 14:30:14;;;;;;;2.72;1.80;;;;;;;;;;5050952;28;20040;-73
2023/07/29 14:32:59;;;;;;;2.97;1.67;;;;;;;;;;5051162;28;20032;-74
2023/07/29 14:35:44;;;;;;;2.35;1.65;;;;;;;;;;5047200;28;20436;-73
2023/07/29 14:38:29;;;;;;;2.20;1.75;;;;;;;;;;5049012;28;20078;-72
2023/07/29 14:41:15;;;;;;;3.47;2.20;;;;;;;;;;5047082;28;20420;-65
2023/07/29 14:44:00;;;;;;;3.13;1.98;;;;;;;;;;5050077;28;20036;-63
2023/07/29 14:46:45;;;;;;;4.55;2.03;;;;;;;;;;5037658;28;20032;-65
2023/07/29 14:49:30;;;;;;;5.43;2.30;;;;;;;;;;5051317;28;20028;-65
2023/07/29 14:52:16;;;;;;;2.72;1.70;;;;;;;;;;5047185;28;20353;-62
2023/07/29 14:55:01;;;;;;;2.33;1.70;;;;;;;;;;5039449;28;20033;-66
2023/07/29 14:57:47;;;;;;;5.07;2.10;;;;;;;;;;5047605;28;20032;-71
2023/07/29 15:00:33;;;;;;;4.05;1.90;;;;;;;;;;5048422;28;20341;-71
2023/07/29 15:03:18;;;;;;;2.40;1.63;;;;;;;;;;5033913;28;20028;-69
2023/07/29 15:06:03;;;;;;;2.80;2.10;;;;;;;;;;5044451;28;20434;-67
2023/07/29 15:08:48;;;;;;;4.82;2.30;;;;;;;;;;5039486;28;20025;-68
2023/07/29 15:11:34;;;;;;;7.03;2.88;;;;;;;;;;5045626;28;20028;-68
2023/07/29 15:14:19;;;;;;;18.27;4.32;;;;;;;;;;5045873;28;20089;-65
2023/07/29 15:17:04;;;;;;;9.73;2.75;;;;;;;;;;5047879;28;20383;-72
2023/07/29 15:19:50;;;;;;;2.97;1.67;;;;;;;;;;5038540;28;20058;-71
2023/07/29 15:22:35;;;;;;;3.22;2.20;;;;;;;;;;5054649;28;20428;-73
2023/07/29 15:25:20;;;;;;;9.55;4.00;;;;;;;;;;5050996;28;20474;-72
2023/07/29 15:28:06;;;;;;;8.27;3.85;;;;;;;;;;5047723;28;20115;-73
2023/07/29 15:30:52;;;;;;;19.05;6.25;;;;;;;;;;5045737;28;20036;-79
2023/07/29 15:33:37;;;;;;;12.43;4.50;;;;;;;;;;5055706;28;20036;-77
2023/07/29 15:36:22;;;;;;;11.98;4.63;;;;;;;;;;5052037;28;20029;-79
2023/07/29 15:39:08;;;;;;;18.05;5.68;;;;;;;;;;5050270;28;20035;-71
2023/07/29 15:41:53;;;;;;;21.45;7.47;;;;;;;;;;5046999;28;20037;-73
2023/07/29 15:44:38;;;;;;;7.82;3.42;;;;;;;;;;5049193;28;20399;-74
2023/07/29 15:47:24;;;;;;;9.25;3.38;;;;;;;;;;5047880;28;20505;-74
2023/07/29 15:50:10;;;;;;;7.35;2.78;;;;;;;;;;5045107;28;20554;-73
2023/07/29 15:52:56;;;;;;;11.63;3.58;;;;;;;;;;5044541;28;20107;-70
2023/07/29 15:55:41;;;;;;;2.55;1.58;;;;;;;;;;5059238;28;20072;-73
2023/07/29 15:58:26;;;;;;;19.38;5.45;;;;;;;;;;5056080;28;20060;-72
2023/07/29 16:01:11;;;;;;;18.88;5.45;;;;;;;;;;5051094;28;20067;-76
2023/07/29 16:03:57;;;;;;;10.13;3.67;;;;;;;;;;5051800;28;20166;-78
2023/07/29 16:06:42;;;;;;;12.73;5.07;;;;;;;;;;5047569;28;20036;-77
2023/07/29 16:09:27;;;;;;;7.30;2.55;;;;;;;;;;5041684;28;20090;-76
2023/07/29 16:12:12;;;;;;;5.32;2.50;;;;;;;;;;5048060;28;20032;-73
2023/07/29 16:14:58;;;;;;;4.43;2.25;;;;;;;;;;5053744;28;20031;-65
2023/07/29 16:17:43;;;;;;;3.15;2.10;;;;;;;;;;5053834;28;20569;-66
2023/07/29 16:20:28;;;;;;;5.22;2.35;;;;;;;;;;5052531;28;20039;-65
2023/07/29 16:23:13;;;;;;;4.60;2.22;;;;;;;;;;5052668;28;20551;-65
2023/07/29 16:25:59;;;;;;;6.05;2.80;;;;;;;;;;5052371;28;20048;-64
2023/07/29 16:28:44;;;;;;;5.93;3.13;;;;;;;;;;5053946;28;20112;-68
2023/07/29 16:31:29;;;;;;;4.13;2.53;;;;;;;;;;5049765;28;20127;-69
2023/07/29 16:34:15;;;;;;;3.80;1.83;;;;;;;;;;5039095;28;20598;-70